Nearby METAR Reports

 

EGOS - RAF Shawbury, Shropshire, UK
Distance from station: NE 9mi, 14km
Updated: 19/09/2018 11:50
Mostly cloudy
Mostly cloudy
 Wind from SSW
Wind: SSW 31 mph , 50 km/h, Gust: 43 mph , 69 km/h
Temperature: 19°C
Dew Point: 12°C
Humidity: 64%
Barometer: 1003 hPa
Clouds: Mostly cloudy
Visibility: 6 miles , 10 km
Cloud details: Few Clouds 762 m
Mostly cloudy 975 m
2018/09/19 10:50 EGOS 191050Z 20027G37KT 9999 FEW025 BKN032 19/12 Q1003 BLU TEMPO 6000 RA SCT020 WHT
KNUQ - Moffett Nas/Mtn, California, USA
Distance from station: N 9mi, 14km
Updated: 19/09/2018 12:37
Partly cloudy
Partly cloudy
 Wind from calm
Wind: Calm
Temperature: 11°C
Dew Point: 9°C
Humidity: 88%
Barometer: 1012.5 hPa
Clouds: Partly cloudy
Visibility: 10 miles , 16 km
Cloud details: Partly cloudy 396 m
2018/09/19 11:37 KNUQ 191137Z 00000KT 10SM SCT013 11/09 A2990 RMK AO2 T01110094 $
 
KPAO - Palo Alto, California, USA
Distance from station: NNW 14mi, 23km
Updated: 19/09/2018 04:47
NOT Current
Clear
Clear
 Wind from NNW
Wind: NNW 8 mph , 13 km/h
Temperature: 14°C
Dew Point: 11°C
Humidity: 82%
Barometer: 1013.5 hPa
Clouds: Clear
Visibility: 10 miles , 16 km
2018/09/19 03:47 KPAO 190347Z 33007KT 10SM SKC 14/11 A2993 RMK LAST
KRHV - San Jose/Reid, California, USA
Distance from station: ENE 12mi, 19km
Updated: 19/09/2018 05:49
NOT Current
Clear
Clear
 Wind from NW
Wind: NW 6 mph , 9 km/h
Temperature: 15°C
Dew Point: 12°C
Humidity: 82%
Barometer: 1012.5 hPa
Clouds: Clear
Visibility: 10 miles , 16 km
2018/09/19 04:49 KRHV 190449Z 32005KT 10SM SKC 15/12 A2990
 
KOAK - Oakland, California, USA
Distance from station: NNW 31mi, 50km
Updated: 19/09/2018 11:53
Few Clouds
Few Clouds
 Wind from SSW
Wind: SSW 10 mph , 17 km/h
Temperature: 13°C
Dew Point: 11°C
Humidity: 88%
Barometer: 1012.2 hPa
Clouds: Few Clouds
Visibility: 9 miles , 14 km
Cloud details: Few Clouds 305 m
2018/09/19 10:53 KOAK 191053Z 20009KT 9SM FEW010 13/11 A2989 RMK AO2 SLP122 T01280106
KSQL - San Carlos Airpo, California, USA
Distance from station: NW 21mi, 34km
Updated: 19/09/2018 12:35
Clear
Clear
 Wind from S
Wind: S 3 mph , 6 km/h
Temperature: 11°C
Dew Point: 9°C
Humidity: 88%
Barometer: 1012.2 hPa
Clouds: Clear
Visibility: 10 miles , 16 km
2018/09/19 11:35 KSQL 191135Z AUTO 19003KT 10SM CLR 11/09 A2989 RMK AO2
 
KSFO - San Francisco, California, USA
Distance from station: NW 30mi, 49km
Updated: 19/09/2018 11:56
Few Clouds
Few Clouds
 Wind from WNW
Wind: WNW 6 mph , 9 km/h
Temperature: 12°C
Dew Point: 9°C
Humidity: 82%
Barometer: 1011.9 hPa
Clouds: Few Clouds
Visibility: 10 miles , 16 km
Cloud details: Few Clouds 183 m
2018/09/19 10:56 KSFO 191056Z 29005KT 10SM FEW006 12/09 A2988 RMK AO2 SLP119 T01220089 $
KE16 - San Martin, California, USA
Distance from station: ESE 27mi, 43km
Updated: 19/09/2018 12:10
Fog, Overcast
Fog, Overcast
 Wind from SSE
Wind: SSE 6 mph , 9 km/h
Temperature: 9°C
Wind Chill: 7°C
Dew Point: 9°C
Humidity: 100%
Barometer: 1013.2 hPa
Summary: Fog
Clouds: Overcast
Visibility: 1/4 mile , 0.4 km
Cloud details: Overcast 61 m
2018/09/19 11:10 KE16 191110Z AUTO 15005KT 1/4SM FG OVC002 09/09 A2992 RMK AO2
 
KWVI - Watsonville, California, USA
Distance from station: SSE 27mi, 44km
Updated: 19/09/2018 11:53
Overcast
Overcast
 Wind from W
Wind: W 3 mph , 6 km/h
Temperature: 11°C
Dew Point: 11°C
Humidity: 100%
Barometer: 1013.2 hPa
Clouds: Overcast
Visibility: 8 miles , 13 km
Cloud details: Overcast 122 m
2018/09/19 10:53 KWVI 191053Z AUTO 28003KT 8SM OVC004 11/11 A2992 RMK AO2 SLP131 T01110106
KHAF - Half Moon Bay, California, USA
Distance from station: WNW 31mi, 50km
Updated: 19/09/2018 12:35
Mist, Overcast
Mist, Overcast
 Wind from calm
Wind: Calm
Temperature: 10°C
Dew Point: 9°C
Humidity: 94%
Barometer: 1012.9 hPa
Summary: Mist
Clouds: Overcast
Visibility: 6 miles , 10 km
Cloud details: Overcast 366 m
2018/09/19 11:35 KHAF 191135Z AUTO 00000KT 6SM BR OVC012 10/09 A2991 RMK AO2
 
KHWD - Hayward, California, USA
Distance from station: N 28mi, 44km
Updated: 19/09/2018 12:09
Partly cloudy
Partly cloudy
 Wind from E
Wind: E 6 mph , 9 km/h
Temperature: 12°C
Dew Point: 9°C
Humidity: 82%
Barometer: 1012.2 hPa
Clouds: Partly cloudy
Visibility: 10 miles , 16 km
Cloud details: Partly cloudy 396 m
2018/09/19 11:09 KHWD 191109Z AUTO 08005KT 10SM SCT013 12/09 A2989 RMK AO2 T01220094
KLVK - Livermore, California, USA
Distance from station: NNE 31mi, 51km
Updated: 19/09/2018 11:53
Clear
Clear
 Wind from WNW
Wind: WNW 6 mph , 9 km/h
Temperature: 11°C
Dew Point: 9°C
Humidity: 88%
Barometer: 1011.9 hPa
Clouds: Clear
Visibility: 9 miles , 14 km
2018/09/19 10:53 KLVK 191053Z AUTO 30005KT 9SM CLR 11/09 A2988 RMK AO2 SLP117 T01110094